Time;durP1;ratioP1;P1;durP2;ratioP2;P2;SDS_P1;SDS_P2;PMS_P1;PMS_P2;Temp;Humidity;BMP_temperature;BMP_pressure;BME280_temperature;BME280_humidity;BME280_pressure;Samples;Min_cycle;Max_cycle;Signal;HPM_P1;HPM_P2
2022/01/19 00:00:53;;;;;;;45.10;23.30;;;;;;;3.84;92.16;103260.03;5024448;28;20561;-56
2022/01/19 00:03:19;;;;;;;49.80;22.53;;;;;;;3.81;92.46;103241.78;5022088;28;20132;-55
2022/01/19 00:05:49;;;;;;;51.80;21.10;;;;;;;3.75;92.25;103239.41;5027954;28;20033;-54
2022/01/19 00:08:18;;;;;;;50.83;22.67;;;;;;;3.79;92.08;103230.50;5027735;28;20072;-56
2022/01/19 00:10:45;;;;;;;53.17;22.63;;;;;;;3.79;92.36;103227.00;5022469;28;20056;-56
2022/01/19 00:13:10;;;;;;;58.80;24.13;;;;;;;3.68;91.95;103215.19;5026770;28;20045;-57
2022/01/19 00:15:36;;;;;;;50.67;24.23;;;;;;;3.71;92.42;103233.44;5028383;28;20037;-56
2022/01/19 00:18:01;;;;;;;79.97;25.03;;;;;;;3.70;92.26;103223.00;5027569;28;20033;-55
2022/01/19 00:20:31;;;;;;;61.03;22.50;;;;;;;3.71;92.43;103228.19;5027157;28;20476;-54
2022/01/19 00:22:57;;;;;;;188.85;23.42;;;;;;;3.68;92.22;103222.22;5027415;28;20036;-56
2022/01/19 00:25:22;;;;;;;228.90;20.67;;;;;;;3.60;92.26;103213.81;5025866;28;20030;-56
2022/01/19 00:27:48;;;;;;;145.30;19.70;;;;;;;3.56;92.20;103207.84;5028126;28;20029;-55
2022/01/19 00:30:14;;;;;;;248.30;19.30;;;;;;;3.46;92.40;103195.16;5022856;28;20037;-55
2022/01/19 00:32:40;;;;;;;203.47;19.13;;;;;;;3.41;92.11;103172.56;5026062;28;20036;-56
2022/01/19 00:35:06;;;;;;;239.20;20.67;;;;;;;3.29;91.76;103157.38;5026883;28;20036;-57
2022/01/19 00:37:32;;;;;;;133.80;19.83;;;;;;;3.26;91.73;103149.63;5028076;28;20109;-56
2022/01/19 00:39:57;;;;;;;135.30;18.93;;;;;;;3.18;91.89;103146.50;5021035;28;20125;-54
2022/01/19 00:42:23;;;;;;;46.50;19.00;;;;;;;3.12;91.78;103136.22;5028075;28;20096;-56
2022/01/19 00:44:48;;;;;;;63.97;17.53;;;;;;;3.14;91.68;103144.88;5022160;28;20110;-56
2022/01/19 00:47:15;;;;;;;73.27;17.20;;;;;;;3.07;91.58;103151.31;5028323;28;20109;-56
2022/01/19 00:49:42;;;;;;;58.07;17.83;;;;;;;3.00;91.32;103158.63;5026090;28;20477;-56
2022/01/19 00:52:08;;;;;;;128.87;17.90;;;;;;;2.96;91.27;103164.06;5027549;28;20493;-56
2022/01/19 00:54:34;;;;;;;164.87;15.83;;;;;;;2.93;91.12;103172.06;5024250;28;20038;-56
2022/01/19 00:56:59;;;;;;;112.50;14.83;;;;;;;2.90;90.89;103169.56;5028768;28;20100;-54
2022/01/19 00:59:24;;;;;;;180.33;13.60;;;;;;;2.80;90.99;103163.81;5027445;28;20057;-55
2022/01/19 01:01:50;;;;;;;81.87;14.57;;;;;;;2.79;91.05;103170.84;5027906;28;20029;-56
2022/01/19 01:04:15;;;;;;;74.90;14.07;;;;;;;2.74;90.73;103164.09;5027686;28;20033;-56
2022/01/19 01:06:41;;;;;;;88.77;12.67;;;;;;;2.70;90.95;103150.25;5031121;28;20032;-57
2022/01/19 01:09:06;;;;;;;91.60;11.93;;;;;;;2.66;91.03;103139.94;5028066;28;20026;-56
2022/01/19 01:11:36;;;;;;;78.20;12.10;;;;;;;2.57;90.81;103129.81;5030867;28;20083;-56
2022/01/19 01:19:01;;;;;;;81.60;13.20;;;;;;;2.33;90.48;103098.44;5030227;28;20049;-56
2022/01/19 01:21:26;;;;;;;112.30;15.70;;;;;;;2.32;90.88;103088.03;5031361;28;20029;-54
2022/01/19 01:23:51;;;;;;;118.33;18.30;;;;;;;2.33;91.24;103082.72;5030559;28;20029;-53
2022/01/19 01:26:17;;;;;;;116.13;18.97;;;;;;;2.36;91.91;103073.88;5031288;28;20039;-55
2022/01/19 01:28:42;;;;;;;77.67;18.00;;;;;;;2.37;92.31;103075.56;5029859;28;20108;-57
2022/01/19 01:31:09;;;;;;;57.00;16.73;;;;;;;2.34;92.58;103065.22;5031001;28;20033;-56
2022/01/19 01:33:34;;;;;;;48.57;16.17;;;;;;;2.35;92.47;103059.91;5030769;28;20048;-56
2022/01/19 01:36:00;;;;;;;80.10;17.50;;;;;;;2.35;92.67;103040.69;5024425;28;20409;-54
2022/01/19 01:38:26;;;;;;;50.63;16.23;;;;;;;2.35;92.71;103023.19;5031018;28;20764;-55
2022/01/19 01:40:56;;;;;;;39.03;18.07;;;;;;;2.32;92.83;103007.59;5030368;28;20032;-56
2022/01/19 01:43:22;;;;;;;41.27;20.87;;;;;;;2.30;92.92;103012.03;5030977;28;20018;-55
2022/01/19 01:45:53;;;;;;;34.47;19.77;;;;;;;2.34;93.04;103020.63;5030518;28;20036;-56
2022/01/19 01:48:21;;;;;;;35.20;19.73;;;;;;;2.34;93.00;103031.13;5030553;28;20393;-56
2022/01/19 01:53:34;;;;;;;26.83;15.70;;;;;;;2.15;92.44;103039.72;5031307;28;20114;-56
2022/01/19 01:56:05;;;;;;;25.50;15.17;;;;;;;2.02;91.78;103038.50;5030231;28;20041;-56
2022/01/19 01:58:35;;;;;;;29.57;16.33;;;;;;;1.99;91.59;103043.88;5026544;28;20029;-55
2022/01/19 02:01:02;;;;;;;28.30;16.43;;;;;;;1.95;91.67;103047.53;5029848;28;20037;-56
2022/01/19 02:03:27;;;;;;;115.13;17.60;;;;;;;1.92;91.66;103042.41;5030178;28;20040;-56
2022/01/19 02:08:45;;;;;;;41.97;16.57;;;;;;;1.81;91.38;103032.38;5029526;28;20040;-54
2022/01/19 02:16:40;;;;;;;62.47;16.80;;;;;;;1.83;91.86;103003.50;5027631;28;20409;-54
2022/01/19 02:22:01;;;;;;;29.83;17.03;;;;;;;1.88;92.34;102966.63;5029841;28;20107;-56
2022/01/19 02:24:30;;;;;;;26.53;16.30;;;;;;;1.74;92.09;102973.28;5029297;28;20067;-56
2022/01/19 02:30:13;;;;;;;75.47;14.67;;;;;;;1.48;91.19;102952.50;5023197;28;20041;-56
2022/01/19 02:40:37;;;;;;;53.20;14.60;;;;;;;0.95;91.24;102947.53;5029513;28;20206;-56
2022/01/19 02:50:58;;;;;;;32.97;16.90;;;;;;;0.84;91.68;102932.22;5026185;28;20117;-56
2022/01/19 02:53:23;;;;;;;120.63;15.20;;;;;;;0.82;91.74;102920.97;5029645;28;20100;-55
2022/01/19 02:55:48;;;;;;;37.93;15.37;;;;;;;0.84;92.17;102903.44;5028808;28;20033;-56
2022/01/19 02:58:18;;;;;;;86.37;15.83;;;;;;;0.79;92.12;102900.16;5029682;28;20075;-56
2022/01/19 03:08:54;;;;;;;73.53;16.10;;;;;;;0.68;91.70;102852.66;5028398;28;20030;-54
2022/01/19 03:11:23;;;;;;;33.43;15.87;;;;;;;0.70;91.79;102842.13;5029245;28;20441;-55
2022/01/19 03:13:49;;;;;;;81.53;15.68;;;;;;;0.64;91.27;102840.63;5029205;28;20021;-56
2022/01/19 03:16:16;;;;;;;41.30;16.77;;;;;;;0.56;91.48;102830.41;5028226;28;20036;-55
2022/01/19 03:18:42;;;;;;;39.87;15.67;;;;;;;0.48;91.59;102835.09;5027967;28;20112;-56
2022/01/19 03:21:08;;;;;;;25.47;16.33;;;;;;;0.46;91.59;102843.91;5028354;28;20104;-56
2022/01/19 03:23:33;;;;;;;32.50;16.07;;;;;;;0.42;91.86;102842.31;5029121;28;20049;-55
2022/01/19 03:26:01;;;;;;;26.47;17.03;;;;;;;0.40;91.96;102841.50;5028456;28;20445;-56
2022/01/19 03:28:26;;;;;;;30.00;18.00;;;;;;;0.42;92.15;102835.31;5027696;28;20033;-55
2022/01/19 03:30:52;;;;;;;32.50;18.63;;;;;;;0.43;92.37;102836.16;5027556;28;20033;-55
2022/01/19 03:33:18;;;;;;;30.33;18.23;;;;;;;0.43;92.61;102826.56;5028426;28;20029;-54
2022/01/19 03:35:43;;;;;;;31.33;19.30;;;;;;;0.49;92.84;102822.88;5028302;28;20029;-55
2022/01/19 03:38:09;;;;;;;37.43;19.80;;;;;;;0.48;92.85;102829.84;5022266;28;20048;-55
2022/01/19 03:40:35;;;;;;;37.73;20.13;;;;;;;0.50;92.99;102825.41;5026769;28;20112;-56
2022/01/19 03:43:03;;;;;;;35.07;20.27;;;;;;;0.50;93.11;102814.13;5025774;28;20021;-53
2022/01/19 03:45:31;;;;;;;31.87;18.50;;;;;;;0.46;92.96;102804.69;5026269;28;20025;-56
2022/01/19 03:49:08;;;;;;;39.80;20.80;;;;;;;0.48;92.88;102795.03;5027906;28;20037;-55
2022/01/19 03:50:51;;;;;;;44.87;21.27;;;;;;;0.50;93.03;102795.81;5026259;28;20670;-54
2022/01/19 03:53:16;;;;;;;42.57;21.80;;;;;;;0.53;92.92;102791.31;5028406;28;20033;-54
2022/01/19 03:55:42;;;;;;;50.43;23.83;;;;;;;0.66;93.26;102780.41;5026659;28;20029;-56
2022/01/19 03:58:07;;;;;;;52.27;24.87;;;;;;;0.73;93.50;102785.34;5028451;28;20021;-55
2022/01/19 04:00:35;;;;;;;54.40;25.93;;;;;;;0.76;93.87;102777.38;5020832;28;20025;-55
2022/01/19 04:03:02;;;;;;;52.33;25.97;;;;;;;0.82;93.86;102773.66;5027257;28;20025;-56
2022/01/19 04:05:41;;;;;;;53.50;25.90;;;;;;;0.86;93.77;102765.63;5027904;28;20032;-55
2022/01/19 04:08:06;;;;;;;51.92;26.60;;;;;;;0.91;94.30;102768.94;5023637;28;20044;-54
2022/01/19 04:10:32;;;;;;;51.43;25.60;;;;;;;0.96;94.16;102765.28;5026792;28;20025;-55
2022/01/19 04:13:09;;;;;;;55.37;25.90;;;;;;;1.01;94.41;102765.94;5028549;28;20022;-55
2022/01/19 04:15:36;;;;;;;56.23;25.47;;;;;;;1.06;94.24;102769.22;5028523;28;20111;-56
2022/01/19 04:18:02;;;;;;;51.87;25.13;;;;;;;1.11;94.31;102780.34;5028172;28;20473;-56
2022/01/19 04:20:28;;;;;;;52.00;26.33;;;;;;;1.17;94.62;102777.50;5026788;28;20032;-55
2022/01/19 04:22:54;;;;;;;56.30;26.00;;;;;;;1.17;94.65;102778.38;5027864;28;20092;-56
2022/01/19 04:25:19;;;;;;;50.03;25.30;;;;;;;1.20;94.52;102766.91;5028110;28;20028;-52
2022/01/19 04:27:45;;;;;;;53.40;25.93;;;;;;;1.20;94.53;102777.38;5025380;28;20061;-55
2022/01/19 04:30:13;;;;;;;57.47;28.23;;;;;;;1.20;94.37;102780.00;5027331;28;20496;-56
2022/01/19 04:33:09;;;;;;;53.13;27.00;;;;;;;1.17;94.66;102777.50;5027227;28;20018;-56
2022/01/19 04:35:43;;;;;;;55.00;26.60;;;;;;;1.17;94.66;102772.28;5026638;28;20083;-56
2022/01/19 05:05:27;;;;;;;65.67;29.07;;;;;;;0.65;95.26;102734.28;5031782;28;20041;-56
2022/01/19 05:07:58;;;;;;;76.70;33.80;;;;;;;0.64;95.72;102738.66;5032217;28;20072;-56
2022/01/19 05:13:36;;;;;;;81.27;37.80;;;;;;;0.61;96.53;102746.63;5024660;28;20072;-56
2022/01/19 05:16:02;;;;;;;94.47;39.87;;;;;;;0.61;96.70;102751.84;5031709;28;20039;-56
2022/01/19 05:18:27;;;;;;;111.40;42.87;;;;;;;0.65;97.14;102752.56;5031024;28;20104;-55
2022/01/19 05:20:54;;;;;;;102.13;41.97;;;;;;;0.61;97.55;102746.63;5030592;28;20411;-56
2022/01/19 05:23:19;;;;;;;109.13;41.63;;;;;;;0.61;97.60;102752.69;5030664;28;20520;-52
2022/01/19 05:25:45;;;;;;;120.97;42.93;;;;;;;0.59;98.01;102745.81;5031105;28;20029;-55
2022/01/19 05:28:11;;;;;;;105.50;41.20;;;;;;;0.52;98.23;102745.19;5031071;28;20021;-55
2022/01/19 05:30:36;;;;;;;104.13;39.63;;;;;;;0.43;98.06;102740.31;5030370;28;20095;-56
2022/01/19 05:33:02;;;;;;;111.20;42.63;;;;;;;0.44;98.48;102743.78;5030673;28;20108;-55
2022/01/19 05:35:27;;;;;;;101.10;40.63;;;;;;;0.39;98.52;102737.88;5031065;28;20297;-55
2022/01/19 05:37:53;;;;;;;103.47;41.53;;;;;;;0.33;98.69;102733.75;5030991;28;20026;-55
2022/01/19 05:40:19;;;;;;;105.90;40.27;;;;;;;0.29;98.99;102735.63;5028306;28;20026;-56
2022/01/19 05:42:47;;;;;;;99.00;40.37;;;;;;;0.25;98.94;102726.19;5028731;28;20079;-55
2022/01/19 05:45:12;;;;;;;102.83;40.33;;;;;;;0.25;99.04;102730.56;5029634;28;20025;-56
2022/01/19 05:47:38;;;;;;;95.93;40.93;;;;;;;0.25;99.29;102730.56;5030393;28;20021;-55
2022/01/19 05:50:04;;;;;;;105.10;41.40;;;;;;;0.27;99.52;102739.19;5029252;28;20068;-55
2022/01/19 05:52:29;;;;;;;99.27;40.50;;;;;;;0.27;99.64;102724.34;5027126;28;20022;-55
2022/01/19 05:54:54;;;;;;;95.87;39.27;;;;;;;0.31;99.81;102730.34;5028941;28;20033;-55
2022/01/19 05:57:19;;;;;;;91.50;39.23;;;;;;;0.34;100.00;102729.38;5029698;28;20177;-56
2022/01/19 05:59:46;;;;;;;93.63;39.80;;;;;;;0.37;100.00;102724.03;5029188;28;20083;-55
2022/01/19 06:02:11;;;;;;;89.97;38.80;;;;;;;0.41;100.00;102723.84;5027796;28;20495;-56
2022/01/19 06:04:37;;;;;;;88.27;38.80;;;;;;;0.43;100.00;102718.56;5026467;28;20026;-56
2022/01/19 06:07:03;;;;;;;89.67;38.97;;;;;;;0.45;100.00;102716.75;5029766;28;20099;-55
2022/01/19 06:09:37;;;;;;;91.00;39.23;;;;;;;0.46;100.00;102718.44;5029456;28;20021;-55
2022/01/19 06:12:07;;;;;;;82.67;35.80;;;;;;;0.49;100.00;102713.09;5027169;28;20032;-55
2022/01/19 06:14:34;;;;;;;80.03;36.63;;;;;;;0.52;100.00;102712.97;5024237;28;20021;-54
2022/01/19 06:17:01;;;;;;;84.80;39.97;;;;;;;0.54;100.00;102718.97;5030048;28;20504;-55
2022/01/19 06:19:27;;;;;;;80.77;37.87;;;;;;;0.56;100.00;102709.31;5028347;28;20036;-56
2022/01/19 06:21:53;;;;;;;85.83;39.33;;;;;;;0.57;100.00;102703.19;5030009;28;20112;-57
2022/01/19 06:24:19;;;;;;;79.93;37.10;;;;;;;0.59;100.00;102693.53;5029094;28;20017;-56
2022/01/19 06:26:44;;;;;;;81.53;38.40;;;;;;;0.60;100.00;102688.25;5029934;28;20044;-56
2022/01/19 06:29:10;;;;;;;81.43;36.07;;;;;;;0.61;100.00;102681.25;5028019;28;20377;-55
2022/01/19 06:31:35;;;;;;;78.27;37.03;;;;;;;0.61;100.00;102681.25;5029809;28;20053;-55
2022/01/19 06:34:01;;;;;;;80.93;37.83;;;;;;;0.62;100.00;102669.88;5028969;28;20025;-56
2022/01/19 06:36:26;;;;;;;80.77;36.77;;;;;;;0.65;100.00;102676.75;5029180;28;20030;-57
2022/01/19 06:38:52;;;;;;;82.07;38.23;;;;;;;0.65;100.00;102667.16;5028444;28;20087;-56
2022/01/19 06:41:17;;;;;;;81.00;36.80;;;;;;;0.67;100.00;102660.09;5029249;28;20439;-55
2022/01/19 06:43:42;;;;;;;78.63;37.73;;;;;;;0.70;100.00;102662.56;5028889;28;20055;-56
2022/01/19 06:46:07;;;;;;;79.10;36.97;;;;;;;0.71;100.00;102656.44;5028898;28;20472;-55
2022/01/19 06:48:33;;;;;;;79.27;38.37;;;;;;;0.75;100.00;102655.38;5028835;28;20318;-55
2022/01/19 06:50:58;;;;;;;80.20;38.17;;;;;;;0.77;100.00;102655.31;5029022;28;20029;-55
2022/01/19 06:53:24;;;;;;;77.33;36.73;;;;;;;0.84;100.00;102647.16;5029123;28;20455;-56
2022/01/19 06:55:49;;;;;;;78.87;36.50;;;;;;;0.87;100.00;102644.44;5028920;28;20037;-55
2022/01/19 06:58:14;;;;;;;80.60;38.03;;;;;;;0.89;100.00;102647.00;5028798;28;20033;-55
2022/01/19 07:00:40;;;;;;;75.27;36.93;;;;;;;0.92;100.00;102644.25;5027992;28;20025;-56
2022/01/19 07:03:05;;;;;;;76.47;36.03;;;;;;;0.96;100.00;102637.13;5023917;28;20099;-55
2022/01/19 07:05:31;;;;;;;74.80;36.63;;;;;;;0.98;100.00;102637.91;5028659;28;20029;-55
2022/01/19 07:07:57;;;;;;;75.87;37.43;;;;;;;0.99;100.00;102645.69;5028584;28;20021;-53
2022/01/19 07:10:24;;;;;;;73.50;34.83;;;;;;;1.01;100.00;102651.69;5027857;28;20083;-56
2022/01/19 07:12:50;;;;;;;74.33;34.50;;;;;;;1.02;100.00;102634.25;5028245;28;20029;-55
2022/01/19 07:15:16;;;;;;;75.80;34.70;;;;;;;1.05;100.00;102631.50;5028590;28;20473;-54
2022/01/19 07:17:41;;;;;;;72.50;34.57;;;;;;;1.03;100.00;102623.72;5028131;28;20087;-57
2022/01/19 07:20:07;;;;;;;72.93;34.10;;;;;;;1.07;100.00;102632.28;5027564;28;20065;-57
2022/01/19 07:22:32;;;;;;;71.13;34.87;;;;;;;1.07;100.00;102633.13;5023108;28;20068;-55
2022/01/19 07:25:00;;;;;;;65.43;33.73;;;;;;;1.08;100.00;102628.75;5028304;28;20044;-55
2022/01/19 07:27:26;;;;;;;67.33;33.83;;;;;;;1.09;100.00;102625.22;5028132;28;20030;-56
2022/01/19 07:29:52;;;;;;;67.47;33.93;;;;;;;1.09;100.00;102625.22;5027544;28;20072;-56
2022/01/19 07:32:17;;;;;;;63.90;33.57;;;;;;;1.09;99.92;102630.44;5023305;28;20485;-56
2022/01/19 07:34:43;;;;;;;66.57;32.67;;;;;;;1.08;100.00;102619.13;5028320;28;20564;-56
2022/01/19 07:37:08;;;;;;;68.93;32.40;;;;;;;1.07;100.00;102621.81;5028447;28;20075;-55
2022/01/19 07:39:34;;;;;;;69.50;33.87;;;;;;;1.11;100.00;102618.13;5023521;28;20029;-56
2022/01/19 07:41:59;;;;;;;70.47;35.37;;;;;;;1.12;99.93;102619.84;5028201;28;20113;-56
2022/01/19 07:44:25;;;;;;;66.03;34.20;;;;;;;1.13;100.00;102616.31;5029043;28;20037;-55
2022/01/19 07:46:53;;;;;;;73.97;38.13;;;;;;;1.15;100.00;102625.78;5021741;28;20554;-56
2022/01/19 07:49:19;;;;;;;68.60;35.00;;;;;;;1.18;100.00;102619.59;5028409;28;20032;-55
2022/01/19 07:51:44;;;;;;;66.20;33.50;;;;;;;1.19;100.00;102618.69;5028538;28;20029;-54
2022/01/19 07:54:10;;;;;;;70.60;35.80;;;;;;;1.21;100.00;102614.22;5024660;28;20489;-55
2022/01/19 07:56:36;;;;;;;67.80;34.77;;;;;;;1.22;100.00;102618.53;5027541;28;20105;-56
2022/01/19 07:59:02;;;;;;;68.20;34.40;;;;;;;1.26;100.00;102606.19;5032699;28;20071;-54
2022/01/19 08:01:30;;;;;;;69.17;34.03;;;;;;;1.29;100.00;102616.50;5033615;28;20239;-55
2022/01/19 08:03:57;;;;;;;70.43;33.60;;;;;;;1.31;100.00;102618.13;5028156;28;20436;-55
2022/01/19 08:06:22;;;;;;;62.30;34.00;;;;;;;1.32;100.00;102606.75;5027037;28;20099;-54
2022/01/19 08:08:47;;;;;;;66.50;33.77;;;;;;;1.36;100.00;102604.84;5027625;28;20029;-56
2022/01/19 08:11:13;;;;;;;60.37;33.13;;;;;;;1.37;100.00;102602.16;5028278;28;20033;-56
2022/01/19 08:13:38;;;;;;;66.90;35.13;;;;;;;1.40;100.00;102588.06;5028016;28;20477;-55
2022/01/19 08:16:04;;;;;;;64.17;33.90;;;;;;;1.40;100.00;102599.41;5028260;28;20083;-55
2022/01/19 08:18:29;;;;;;;61.87;33.53;;;;;;;1.44;100.00;102592.25;5028021;28;20076;-56
2022/01/19 08:20:55;;;;;;;69.77;34.53;;;;;;;1.45;100.00;102597.44;5027940;28;20369;-57
2022/01/19 08:23:20;;;;;;;64.00;33.93;;;;;;;1.47;100.00;102597.38;5028427;28;20032;-57
2022/01/19 08:25:45;;;;;;;65.57;33.33;;;;;;;1.51;100.00;102596.31;5028577;28;20052;-56
2022/01/19 08:28:11;;;;;;;64.80;32.90;;;;;;;1.52;100.00;102596.25;5027329;28;20021;-55
2022/01/19 08:30:37;;;;;;;65.50;33.30;;;;;;;1.55;100.00;102595.25;5029215;28;20037;-54
2022/01/19 08:33:02;;;;;;;64.73;34.07;;;;;;;1.58;100.00;102591.66;5028691;28;20029;-55
2022/01/19 08:35:28;;;;;;;63.10;32.67;;;;;;;1.59;100.00;102596.81;5022814;28;20064;-56
2022/01/19 08:37:53;;;;;;;61.73;32.73;;;;;;;1.61;100.00;102599.38;5027676;28;20021;-55
2022/01/19 08:40:25;;;;;;;62.37;32.97;;;;;;;1.62;100.00;102578.34;5027083;28;20025;-56
2022/01/19 08:42:50;;;;;;;63.00;33.27;;;;;;;1.64;100.00;102573.03;5027859;28;20025;-54
2022/01/19 08:45:16;;;;;;;69.53;34.60;;;;;;;1.67;100.00;102575.50;5027993;28;20029;-57
2022/01/19 08:47:42;;;;;;;62.87;33.53;;;;;;;1.66;100.00;102558.09;5026677;28;20029;-56
2022/01/19 08:50:10;;;;;;;62.93;33.63;;;;;;;1.69;100.00;102557.94;5027562;28;20427;-56
2022/01/19 08:52:36;;;;;;;60.30;31.90;;;;;;;1.72;100.00;102563.03;5024728;28;20036;-56
2022/01/19 08:55:02;;;;;;;58.40;32.50;;;;;;;1.73;100.00;102552.50;5025466;28;20030;-56
2022/01/19 08:57:27;;;;;;;61.70;33.03;;;;;;;1.72;100.00;102549.94;5021538;28;20037;-57
2022/01/19 08:59:52;;;;;;;62.10;31.40;;;;;;;1.77;99.92;102553.22;5026256;28;20091;-56
2022/01/19 09:02:18;;;;;;;59.80;32.80;;;;;;;1.77;99.81;102551.47;5025983;28;20397;-57
2022/01/19 09:04:45;;;;;;;54.40;32.10;;;;;;;1.79;99.83;102554.00;5023096;28;20036;-56
2022/01/19 09:07:10;;;;;;;58.63;32.13;;;;;;;1.81;99.78;102557.41;5022004;28;20121;-55
2022/01/19 09:09:35;;;;;;;62.87;32.07;;;;;;;1.83;99.85;102560.78;5021550;28;20104;-54
2022/01/19 09:12:01;;;;;;;53.83;29.87;;;;;;;1.85;99.98;102549.31;5026817;28;20474;-56
2022/01/19 09:14:26;;;;;;;54.10;31.60;;;;;;;1.87;99.81;102536.16;5026058;28;20857;-55
2022/01/19 09:16:51;;;;;;;56.43;32.53;;;;;;;1.89;99.40;102536.94;5024207;28;20061;-56
2022/01/19 09:19:19;;;;;;;59.03;31.13;;;;;;;1.92;99.50;102543.78;5025015;28;20568;-57
2022/01/19 09:21:45;;;;;;;53.00;30.73;;;;;;;1.96;99.61;102542.72;5027205;28;20116;-57
2022/01/19 09:24:10;;;;;;;52.30;31.60;;;;;;;1.98;99.49;102536.47;5026792;28;20025;-56
2022/01/19 09:26:37;;;;;;;54.67;31.73;;;;;;;2.00;99.22;102532.00;5027588;28;20031;-57
2022/01/19 09:29:03;;;;;;;53.50;29.27;;;;;;;2.02;99.34;102530.16;5029737;28;20041;-55
2022/01/19 09:31:29;;;;;;;56.03;31.23;;;;;;;2.05;99.37;102519.56;5030109;28;20260;-57
2022/01/19 09:34:05;;;;;;;54.33;31.37;;;;;;;2.08;99.28;102519.41;5028399;28;20026;-56
2022/01/19 09:36:35;;;;;;;55.77;31.20;;;;;;;2.11;98.91;102521.03;5022612;28;20029;-55
2022/01/19 09:39:03;;;;;;;55.70;30.03;;;;;;;2.12;98.59;102504.38;5029778;28;20037;-56
2022/01/19 09:41:29;;;;;;;54.73;30.47;;;;;;;2.13;98.60;102504.31;5028665;28;20033;-54
2022/01/19 09:43:55;;;;;;;53.83;30.27;;;;;;;2.14;98.42;102498.16;5029463;28;20030;-54
2022/01/19 09:46:21;;;;;;;52.27;30.50;;;;;;;2.19;98.54;102492.66;5029785;28;20025;-56
2022/01/19 09:48:46;;;;;;;56.20;31.37;;;;;;;2.21;98.48;102487.34;5029333;28;20466;-54
2022/01/19 09:51:14;;;;;;;49.57;28.67;;;;;;;2.22;98.57;102486.41;5031233;28;20082;-55
2022/01/19 09:53:40;;;;;;;50.93;29.93;;;;;;;2.24;98.19;102482.81;5030490;28;20024;-54
2022/01/19 09:56:06;;;;;;;49.97;28.53;;;;;;;2.29;98.42;102483.41;5030991;28;20756;-55
2022/01/19 09:58:31;;;;;;;46.97;29.00;;;;;;;2.32;98.05;102485.06;5029952;28;20042;-57
2022/01/19 10:00:57;;;;;;;47.20;28.53;;;;;;;2.34;98.17;102473.56;5030510;28;20128;-53
2022/01/19 10:03:28;;;;;;;50.33;29.30;;;;;;;2.35;98.07;102467.41;5030353;28;20392;-55
2022/01/19 10:06:07;;;;;;;50.63;29.57;;;;;;;2.38;98.01;102463.78;5030439;28;20042;-55
2022/01/19 10:08:54;;;;;;;51.30;29.77;;;;;;;2.38;97.86;102455.91;5027978;28;20087;-57
2022/01/19 10:11:29;;;;;;;51.33;29.57;;;;;;;2.41;97.90;102459.22;5030136;28;20492;-54
2022/01/19 10:17:08;;;;;;;48.47;29.80;;;;;;;2.47;97.55;102466.75;5030123;28;20036;-55
2022/01/19 10:19:49;;;;;;;49.23;29.17;;;;;;;2.49;97.75;102462.28;5026212;28;20025;-56
2022/01/19 10:22:23;;;;;;;50.40;28.50;;;;;;;2.52;97.72;102460.44;5030549;28;20014;-56
2022/01/19 10:25:00;;;;;;;46.87;28.50;;;;;;;2.55;97.78;102452.41;5029861;28;20155;-56
2022/01/19 10:27:38;;;;;;;46.97;27.47;;;;;;;2.58;97.52;102449.63;5030045;28;20377;-55
2022/01/19 10:30:06;;;;;;;48.33;28.50;;;;;;;2.60;97.49;102448.66;5029495;28;20029;-55
2022/01/19 10:32:42;;;;;;;47.43;27.80;;;;;;;2.63;97.64;102448.47;5027417;28;20025;-56
2022/01/19 10:35:13;;;;;;;47.80;29.13;;;;;;;2.66;97.40;102436.97;5030225;28;20409;-55
2022/01/19 10:37:39;;;;;;;48.80;29.37;;;;;;;2.67;97.21;102428.19;5029592;28;20056;-55
2022/01/19 10:40:04;;;;;;;43.90;28.53;;;;;;;2.70;97.04;102431.50;5024271;28;20025;-54
2022/01/19 10:42:31;;;;;;;46.80;27.90;;;;;;;2.72;97.17;102436.66;5030344;28;20014;-54
2022/01/19 10:45:08;;;;;;;47.30;28.50;;;;;;;2.76;97.09;102431.16;5029671;28;20315;-55
2022/01/19 10:47:53;;;;;;;47.53;28.57;;;;;;;2.77;97.27;102426.75;5029336;28;20024;-55
2022/01/19 10:50:28;;;;;;;44.43;27.23;;;;;;;2.82;97.22;102431.75;5028449;28;20037;-56
2022/01/19 10:52:55;;;;;;;48.23;27.90;;;;;;;2.82;97.16;102422.09;5029859;28;20025;-55
2022/01/19 10:55:20;;;;;;;48.77;28.53;;;;;;;2.84;96.81;102409.75;5029622;28;20087;-55
2022/01/19 10:57:47;;;;;;;45.63;27.97;;;;;;;2.87;97.11;102403.50;5029898;28;20037;-55
2022/01/19 11:00:23;;;;;;;49.37;28.03;;;;;;;2.89;96.95;102414.75;5024962;28;20056;-56
2022/01/19 11:02:51;;;;;;;45.40;28.70;;;;;;;2.90;96.77;102409.44;5024410;28;20405;-54
2022/01/19 11:05:37;;;;;;;50.20;29.00;;;;;;;2.93;97.12;102414.53;5029464;28;20022;-56
2022/01/19 11:08:02;;;;;;;48.87;28.83;;;;;;;2.96;97.01;102408.28;5028766;28;20039;-55
2022/01/19 11:10:31;;;;;;;48.17;28.90;;;;;;;2.99;97.25;102393.19;5028736;28;20448;-55
2022/01/19 11:12:56;;;;;;;48.00;29.30;;;;;;;3.00;97.00;102388.78;5028702;28;20473;-55
2022/01/19 11:15:21;;;;;;;53.77;29.20;;;;;;;3.02;97.01;102386.94;5029589;28;20044;-54
2022/01/19 11:17:48;;;;;;;47.43;28.83;;;;;;;3.03;96.89;102388.63;5028893;28;20029;-54
2022/01/19 11:20:16;;;;;;;48.73;29.20;;;;;;;3.06;96.47;102383.22;5028814;28;20033;-55
2022/01/19 11:23:26;;;;;;;50.92;29.83;;;;;;;3.08;96.84;102370.84;5028879;28;20102;-55
2022/01/19 11:26:11;;;;;;;48.67;30.03;;;;;;;3.08;96.67;102371.69;5010930;28;20029;-55
2022/01/19 11:28:40;;;;;;;47.23;28.90;;;;;;;3.09;96.71;102364.66;5028675;28;20052;-55
2022/01/19 11:31:09;;;;;;;51.33;30.20;;;;;;;3.09;96.64;102347.13;5028932;28;20050;-56
2022/01/19 11:33:52;;;;;;;48.35;30.13;;;;;;;3.09;96.23;102348.91;5028817;28;20284;-54
2022/01/19 11:36:34;;;;;;;47.70;30.07;;;;;;;3.09;96.50;102347.13;5029411;28;20063;-55
2022/01/19 11:39:11;;;;;;;54.83;30.73;;;;;;;3.10;96.58;102342.72;5027688;28;20033;-54
2022/01/19 11:41:41;;;;;;;51.43;30.03;;;;;;;3.10;96.72;102342.72;5028372;28;20025;-52
2022/01/19 11:44:32;;;;;;;51.00;31.17;;;;;;;3.11;96.77;102328.69;5028628;28;20441;-54
2022/01/19 11:47:16;;;;;;;51.00;30.23;;;;;;;3.11;96.78;102326.06;5020713;28;20052;-55
2022/01/19 11:49:54;;;;;;;51.23;30.70;;;;;;;3.12;96.89;102319.88;5022372;28;20044;-56
2022/01/19 11:52:28;;;;;;;52.67;30.33;;;;;;;3.14;96.61;102309.28;5028450;28;20504;-55
2022/01/19 11:55:15;;;;;;;52.20;31.33;;;;;;;3.13;96.91;102303.19;5029126;28;20063;-55
2022/01/19 11:57:42;;;;;;;49.50;30.20;;;;;;;3.15;96.71;102298.69;5028787;28;20203;-53
2022/01/19 12:00:11;;;;;;;55.17;31.53;;;;;;;3.14;96.60;102297.00;5027227;28;20408;-56
2022/01/19 12:02:40;;;;;;;57.22;32.75;;;;;;;3.16;96.92;102294.28;5027570;28;20056;-53
2022/01/19 12:05:07;;;;;;;61.92;31.10;;;;;;;3.18;96.66;102293.31;5024035;28;20021;-55
2022/01/19 12:07:43;;;;;;;52.43;31.43;;;;;;;3.19;96.66;102273.16;5028204;28;20029;-52
2022/01/19 12:10:30;;;;;;;55.80;33.23;;;;;;;3.20;96.83;102264.34;5024329;28;20082;-56
2022/01/19 12:13:39;;;;;;;59.77;33.70;;;;;;;3.24;96.59;102256.19;5026010;28;20113;-54
2022/01/19 12:16:19;;;;;;;;;;;;;;;3.30;96.61;102255.00;5024206;28;20485;-55
2022/01/19 12:19:01;;;;;;;58.67;33.92;;;;;;;3.33;96.55;102249.56;5026854;28;20304;-56
2022/01/19 12:21:26;;;;;;;62.80;35.93;;;;;;;3.37;96.58;102246.66;5025945;28;20025;-54
2022/01/19 12:23:52;;;;;;;62.03;34.50;;;;;;;3.39;96.34;102242.16;5030132;28;20029;-57
2022/01/19 12:26:17;;;;;;;61.17;34.97;;;;;;;3.41;96.07;102237.66;5027364;28;20033;-55
2022/01/19 12:28:51;;;;;;;60.23;36.13;;;;;;;3.43;96.42;102240.19;5027621;28;20069;-55
2022/01/19 12:31:29;;;;;;;61.73;36.13;;;;;;;3.45;96.08;102242.72;5027693;28;20048;-55
2022/01/19 12:34:04;;;;;;;61.37;35.10;;;;;;;3.46;96.42;102241.78;5027197;28;20030;-56
2022/01/19 12:36:43;;;;;;;59.47;36.07;;;;;;;3.47;96.19;102240.84;5028004;28;20124;-55
2022/01/19 12:39:43;;;;;;;65.40;36.35;;;;;;;3.49;95.99;102231.13;5027217;28;20069;-56